createdAt,value
2022-08-19T00:11:33.910Z,980.5
2022-08-19T00:26:02.940Z,980.5
2022-08-19T00:40:31.582Z,980.6
2022-08-19T00:55:00.638Z,980.5
2022-08-19T01:09:29.874Z,980.5
2022-08-19T01:23:58.407Z,980.2
2022-08-19T01:38:25.745Z,980.2
2022-08-19T01:53:08.135Z,980.2
2022-08-19T02:07:27.525Z,980.3
2022-08-19T02:21:56.832Z,980.1
2022-08-19T02:36:26.155Z,980.3
2022-08-19T02:50:54.834Z,980.2
2022-08-19T03:05:57.321Z,980.3
2022-08-19T03:20:08.710Z,980.2
2022-08-19T03:34:37.848Z,980.3
2022-08-19T03:49:06.732Z,980.3
2022-08-19T04:03:37.221Z,980.4
2022-08-19T04:18:03.646Z,980.6
2022-08-19T04:32:32.997Z,980.5
2022-08-19T04:47:01.857Z,980.6
2022-08-19T05:01:40.677Z,980.8
2022-08-19T05:16:11.783Z,980.9
2022-08-19T05:30:48.116Z,980.9
2022-08-19T05:45:11.701Z,980.9
2022-08-19T05:59:41.879Z,981
2022-08-19T06:14:17.053Z,981
2022-08-19T06:28:43.082Z,980.9
2022-08-19T06:43:14.964Z,980.9
2022-08-19T06:57:44.984Z,980.9
2022-08-19T07:12:15.198Z,981.2
2022-08-19T07:26:45.119Z,981.3
2022-08-19T07:41:16.554Z,981.4
2022-08-19T07:55:59.154Z,981.5
2022-08-19T08:10:31.760Z,981.5
2022-08-19T08:24:59.855Z,981.5
2022-08-19T08:39:31.385Z,981.5
2022-08-19T08:54:02.145Z,981.5
2022-08-19T09:08:34.260Z,981.6
2022-08-19T09:22:58.799Z,981.5
2022-08-19T09:37:25.133Z,981.4
2022-08-19T09:51:51.657Z,981.5
2022-08-19T10:06:17.669Z,981.5
2022-08-19T10:20:53.002Z,981.4
2022-08-19T10:35:27.646Z,981.3
2022-08-19T10:49:56.151Z,981.4
2022-08-19T11:04:20.252Z,981.4
2022-08-19T11:18:50.903Z,981.2
2022-08-19T11:33:24.311Z,981
2022-08-19T11:47:56.246Z,981
2022-08-19T12:02:26.551Z,981
2022-08-19T12:16:52.856Z,981.1
2022-08-19T12:31:22.855Z,981
2022-08-19T12:45:49.440Z,980.8
2022-08-19T13:00:24.249Z,980.7
2022-08-19T13:14:51.426Z,980.6
2022-08-19T13:29:19.710Z,980.6
2022-08-19T13:43:49.252Z,980.5
2022-08-19T13:58:17.162Z,980.5
2022-08-19T14:12:43.587Z,980.5
2022-08-19T14:27:14.030Z,980.6
2022-08-19T14:41:41.554Z,980.6
2022-08-19T14:56:10.767Z,980.6
2022-08-19T15:10:36.729Z,980.7
2022-08-19T15:25:12.112Z,980.8
2022-08-19T15:39:41.104Z,980.8
2022-08-19T15:54:04.945Z,981
2022-08-19T16:08:49.649Z,981.1
2022-08-19T16:23:09.911Z,981
2022-08-19T16:37:39.817Z,981
2022-08-19T16:52:08.067Z,981
2022-08-19T17:06:33.453Z,980.9
2022-08-19T17:21:07.210Z,980.8
2022-08-19T17:35:31.243Z,980.8
2022-08-19T17:50:03.976Z,980.8
2022-08-19T18:04:27.720Z,981
2022-08-19T18:18:55.433Z,981.1
2022-08-19T18:33:23.420Z,981.2
2022-08-19T18:47:57.212Z,981.2
2022-08-19T19:02:20.483Z,981.5
2022-08-19T19:16:53.636Z,981.6
2022-08-19T19:31:18.267Z,981.8
2022-08-19T19:45:45.973Z,981.9
2022-08-19T20:00:15.083Z,982.1
2022-08-19T20:14:42.392Z,982.2
2022-08-19T20:29:44.644Z,982.2
2022-08-19T20:44:01.822Z,982.3
2022-08-19T20:58:26.778Z,982.3
2022-08-19T21:12:53.208Z,982.3
2022-08-19T21:27:21.314Z,982.3
2022-08-19T21:41:49.983Z,982.4
2022-08-19T21:56:18.180Z,982.5
2022-08-19T22:10:47.084Z,982.5
2022-08-19T22:25:32.432Z,982.5
2022-08-19T22:39:52.001Z,982.4
2022-08-19T22:54:21.597Z,982.5
2022-08-19T23:08:50.902Z,982.6
2022-08-19T23:23:19.798Z,982.4
2022-08-19T23:37:48.256Z,982.3
2022-08-19T23:52:17.518Z,982.3
